»·PEaware :: FDX102 KLAS-KRNO

FDX102 :: KLAS-KRNO

FLIGHT INFORMATION

Flight Status: Arrived
Operator:
Federal Express
More flights by this operator :: More flights under this callsign
Pilot: Cole F. (14495)
Aircraft: BOEING 727-200
(B722)
More flights by this aircraft type
Origin: KLAS McCarran Intl
United States
Destination: KRNO Reno/Tahoe Intl
United States
More flights between these airports :: More routes between these airports
Route: +MCCRN5 BTY OAL / MVA RYANN1
File this flight plan on PilotEdge
Remarks:
Altitude:
(Current/Filed)
32,000ft
Speed:
(Current/Filed)
478kts
Departed: 31-Jan-19 08:26 AM
Arrived: 31-Jan-19 09:24 AM
Distance/Time
Traveled:
301nm/0:58
Distance/Time
To Go:
Arrived

Flight Plot

Page will automatically refresh every two minutes.

Flight plan parsing failed; only flown route is shown


Map Options




Map Legend


Flown Route
Filed Route
Departure Airport
Arrival Airport
Navaid (VOR, NDB)
Fix

Horizontal Profiles

Position Reports

Time Latitude Longitude Heading Altitude Ground
Speed
31-Jan-19 08:00 36.083026 -115.129542 88 2122ft 0kts
31-Jan-19 08:01 36.083026 -115.129542 88 2122ft 0kts
31-Jan-19 08:02 36.083026 -115.129542 88 2122ft 0kts
31-Jan-19 08:03 36.083026 -115.129541 88 2122ft 0kts
31-Jan-19 08:04 36.083026 -115.129541 88 2122ft 0kts
31-Jan-19 08:05 36.083026 -115.129541 88 2122ft 0kts
31-Jan-19 08:06 36.083026 -115.129541 88 2122ft 0kts
31-Jan-19 08:07 36.083026 -115.129541 88 2122ft 0kts
31-Jan-19 08:08 36.083026 -115.129541 88 2122ft 0kts
31-Jan-19 08:09 36.083026 -115.129541 88 2122ft 0kts
31-Jan-19 08:10 36.083026 -115.129541 88 2122ft 0kts
31-Jan-19 08:11 36.083026 -115.129541 88 2122ft 0kts
31-Jan-19 08:12 36.083026 -115.129541 88 2122ft 0kts
31-Jan-19 08:13 36.083029 -115.129865 108 2122ft 2kts
31-Jan-19 08:14 36.083030 -115.130062 163 2122ft 6kts
31-Jan-19 08:15 36.082679 -115.129998 179 2122ft 0kts
31-Jan-19 08:16 36.082679 -115.129998 179 2122ft 0kts
31-Jan-19 08:17 36.082679 -115.129998 179 2122ft 0kts
31-Jan-19 08:18 36.082679 -115.129998 179 2122ft 0kts
31-Jan-19 08:19 36.082068 -115.129994 179 2122ft 11kts
31-Jan-19 08:20 36.078698 -115.130202 181 2122ft 11kts
31-Jan-19 08:21 36.078283 -115.125708 90 2122ft 15kts
31-Jan-19 08:22 36.077571 -115.121634 129 2122ft 0kts
31-Jan-19 08:23 36.077571 -115.121634 129 2122ft 0kts
31-Jan-19 08:24 36.076872 -115.121267 178 2122ft 12kts
31-Jan-19 08:25 36.076397 -115.142665 269 2154ft 161kts
31-Jan-19 08:26 36.076789 -115.203489 270 3369ft 205kts
31-Jan-19 08:27 36.043375 -115.268829 202 5437ft 269kts
31-Jan-19 08:28 35.974432 -115.305054 202 8799ft 275kts
31-Jan-19 08:29 35.901636 -115.342188 202 11327ft 301kts
31-Jan-19 08:30 35.824753 -115.388790 231 13986ft 318kts
31-Jan-19 08:31 35.823203 -115.496632 282 16376ft 338kts
31-Jan-19 08:32 35.845714 -115.611173 282 18605ft 350kts
31-Jan-19 08:33 35.869089 -115.729723 281 20563ft 361kts
31-Jan-19 08:34 35.893223 -115.851773 281 22296ft 371kts
31-Jan-19 08:35 35.904413 -115.977606 266 23611ft 376kts
31-Jan-19 08:36 35.958313 -116.081961 336 24670ft 398kts
31-Jan-19 08:37 36.060161 -116.138144 330 25836ft 405kts
31-Jan-19 08:38 36.160473 -116.205480 330 26893ft 412kts
31-Jan-19 08:39 36.260073 -116.277557 323 27794ft 417kts
31-Jan-19 08:40 36.355782 -116.360903 323 28655ft 424kts
31-Jan-19 08:41 36.453207 -116.444592 323 29419ft 429kts
31-Jan-19 08:42 36.551793 -116.529826 323 30118ft 434kts
31-Jan-19 08:43 36.651443 -116.616328 323 30736ft 439kts
31-Jan-19 08:44 36.750603 -116.704668 322 31301ft 443kts
31-Jan-19 08:45 36.848572 -116.799404 320 31802ft 447kts
31-Jan-19 08:46 36.952294 -116.887414 325 32080ft 457kts
31-Jan-19 08:47 37.060019 -116.976471 325 32080ft 473kts
31-Jan-19 08:48 37.172496 -117.068721 327 32079ft 490kts
31-Jan-19 08:49 37.288270 -117.165144 326 32079ft 506kts
31-Jan-19 08:50 37.407371 -117.264954 326 32078ft 521kts
31-Jan-19 08:51 37.529402 -117.367484 326 32077ft 531kts
31-Jan-19 08:52 37.653205 -117.471671 326 32077ft 536kts
31-Jan-19 08:53 37.778038 -117.577365 326 32077ft 540kts
31-Jan-19 08:54 37.906571 -117.673236 343 32080ft 538kts
31-Jan-19 08:55 38.046920 -117.740228 335 32072ft 539kts
31-Jan-19 08:56 38.183142 -117.816868 336 32059ft 538kts
31-Jan-19 08:57 38.319870 -117.893782 336 32045ft 534kts
31-Jan-19 08:58 38.455429 -117.970470 336 32046ft 531kts
31-Jan-19 08:59 38.585716 -118.057196 314 32053ft 525kts
31-Jan-19 09:00 38.656320 -118.217922 295 32049ft 521kts
31-Jan-19 09:01 38.719957 -118.385507 295 32049ft 522kts
31-Jan-19 09:02 38.783764 -118.553304 295 32050ft 523kts
31-Jan-19 09:03 38.843069 -118.708688 295 31743ft 464kts
31-Jan-19 09:04 38.905614 -118.845331 309 27339ft 430kts
31-Jan-19 09:05 38.984860 -118.955230 315 23461ft 410kts
31-Jan-19 09:06 39.063630 -119.056252 316 21613ft 392kts
31-Jan-19 09:07 39.139911 -119.152791 316 19177ft 373kts
31-Jan-19 09:08 39.211467 -119.243703 315 16078ft 352kts
31-Jan-19 09:09 39.277418 -119.328097 315 15961ft 318kts
31-Jan-19 09:10 39.338431 -119.406459 315 15347ft 319kts
31-Jan-19 09:11 39.401143 -119.487185 315 14547ft 314kts
31-Jan-19 09:12 39.462506 -119.566391 315 13232ft 309kts
31-Jan-19 09:13 39.522588 -119.644143 315 12016ft 302kts
31-Jan-19 09:14 39.583301 -119.717186 341 10757ft 293kts
31-Jan-19 09:15 39.661282 -119.721924 3 10065ft 263kts
31-Jan-19 09:16 39.730628 -119.725232 323 8892ft 253kts
31-Jan-19 09:17 39.723975 -119.795707 196 8153ft 234kts
31-Jan-19 09:18 39.666496 -119.765694 167 7666ft 218kts
31-Jan-19 09:19 39.616791 -119.769252 178 6478ft 147kts
31-Jan-19 09:20 39.575443 -119.769013 179 5719ft 150kts
31-Jan-19 09:21 39.533615 -119.769131 179 4932ft 149kts
31-Jan-19 09:23 39.498194 -119.769254 180 4420ft 52kts
31-Jan-19 09:24 39.492586 -119.770846 258 4420ft 8kts
31-Jan-19 09:25 39.495530 -119.771527 359 4420ft 16kts
31-Jan-19 09:26 39.500351 -119.771511 0 4420ft 17kts
31-Jan-19 09:27 39.505426 -119.771526 359 4420ft 18kts
31-Jan-19 09:28 39.509057 -119.772852 270 4420ft 13kts
31-Jan-19 09:29 39.508865 -119.775470 225 4420ft 0kts

Navigation Log

Ident Type
Flight plan parsing failed, navigation log unavailable